Terminal Aerodrome Forecast
Issued by NWS

Home | Current Version | Previous Version | Text Only | Print | Product List | Glossary On
Versions: 1 2 3 4 5 6 7 8 9 10 11 12 13
268
FTUS42 KMLB 131720
TAFISM
TAF
KISM 131720Z 1318/1418 32008KT P6SM SKC
     FM140000 26003KT P6SM SKC
     FM140800 22003KT P6SM SCT040
     FM141400 23007KT P6SM BKN040=

USA.gov is the U.S. government's official web portal to all federal, state and local government web resources and services.